PWSweather.com
Personal Weather Stations
Station Observations
NORTHPOLE1
Tombur Subdivision, North Pole, AK 99705

Tombur SubdivisionNorth Pole, AK 99705

Lat: 64.774039, Lon: -147.284862

Elevation: 434

Station Type: Davis Vantage Pro 2

http://kl7ac.com

High Low Average
Temperature 66.9°F19.4°F 49.8°F9.9°F 56.6°F13.7°F
Dew Point 59.4°F15.2°F 48.8°F9.3°F 54.6°F12.6°F
Winds 6.0 mph NNE9.7 mph NNE Calm Calm 0.4 mph 0.6 mph
Wind Gusts 16.0 mph25.7 mph -- 2.6 mph4.2 mph
Humidity 100% 66% 94%
Pressure 29.74 in1007.10 in 29.61 in1002.70 in -
Precipitation 1.79 in45.50 in - -
Hour Temp Dew Point Humidity Winds Wind Gusts Pressure Precip Precip Rate Daily Precip Total
12:00 AM 54.5°F12.5°C 53.9°F12.2°C 100% Calm Calm -- 29.61 in1002.7 mb 0.00 in0.0 mm 0.00 in0.0 mm 0.00 in0.0 mm
12:05 AM 54.4°F12.4°C 53.8°F12.1°C 100% Calm Calm -- 29.61 in1002.7 mb 0.00 in0.0 mm 0.00 in0.0 mm 0.00 in0.0 mm
12:10 AM 54.4°F12.4°C 53.8°F12.1°C 100% Calm Calm 2.0 mph3.2 kmh 29.61 in1002.7 mb 0.00 in0.0 mm 0.00 in0.0 mm 0.00 in0.0 mm
12:15 AM 54.4°F12.4°C 53.8°F12.1°C 100% Calm Calm 2.0 mph3.2 kmh 29.62 in1003.0 mb 0.00 in0.0 mm 0.00 in0.0 mm 0.00 in0.0 mm
12:20 AM 54.4°F12.4°C 53.8°F12.1°C 100% Calm Calm 2.0 mph3.2 kmh 29.62 in1003.0 mb 0.00 in0.0 mm 0.00 in0.0 mm 0.00 in0.0 mm
12:25 AM 54.4°F12.4°C 53.8°F12.1°C 100% Calm Calm 1.0 mph1.6 kmh 29.62 in1003.0 mb 0.00 in0.0 mm 0.00 in0.0 mm 0.00 in0.0 mm
12:30 AM 54.4°F12.4°C 53.8°F12.1°C 100% Calm Calm 1.0 mph1.6 kmh 29.62 in1003.0 mb 0.00 in0.0 mm 0.00 in0.0 mm 0.00 in0.0 mm
12:35 AM 54.4°F12.4°C 53.8°F12.1°C 100% Calm Calm 2.0 mph3.2 kmh 29.62 in1003.0 mb 0.00 in0.0 mm 0.00 in0.0 mm 0.00 in0.0 mm
12:40 AM 54.4°F12.4°C 53.8°F12.1°C 100% Calm Calm 2.0 mph3.2 kmh 29.62 in1003.0 mb 0.00 in0.0 mm 0.00 in0.0 mm 0.00 in0.0 mm
12:45 AM 54.3°F12.4°C 53.7°F12.1°C 100% 1.0 mph S1.6 kmh S 3.0 mph4.8 kmh 29.62 in1003.0 mb 0.00 in0.0 mm 0.00 in0.0 mm 0.00 in0.0 mm
12:50 AM 54.3°F12.4°C 53.7°F12.1°C 100% 1.0 mph S1.6 kmh S 3.0 mph4.8 kmh 29.62 in1003.0 mb 0.00 in0.0 mm 0.00 in0.0 mm 0.00 in0.0 mm
12:55 AM 54.3°F12.4°C 53.7°F12.1°C 100% Calm Calm 2.0 mph3.2 kmh 29.62 in1003.0 mb 0.00 in0.0 mm 0.00 in0.0 mm 0.00 in0.0 mm
01:00 AM 54.2°F12.3°C 53.6°F12.0°C 100% Calm Calm 2.0 mph3.2 kmh 29.63 in1003.4 mb 0.00 in0.0 mm 0.00 in0.0 mm 0.00 in0.0 mm
01:05 AM 54.2°F12.3°C 53.6°F12.0°C 100% Calm Calm 2.0 mph3.2 kmh 29.63 in1003.4 mb 0.00 in0.0 mm 0.00 in0.0 mm 0.00 in0.0 mm
01:10 AM 54.1°F12.3°C 53.5°F11.9°C 100% Calm Calm 2.0 mph3.2 kmh 29.63 in1003.4 mb 0.01 in0.3 mm 0.12 in3.0 mm 0.01 in0.3 mm
01:15 AM 54.1°F12.3°C 53.5°F11.9°C 100% Calm Calm 2.0 mph3.2 kmh 29.63 in1003.4 mb 0.01 in0.3 mm 0.00 in0.0 mm 0.01 in0.3 mm
01:20 AM 54.1°F12.3°C 53.5°F11.9°C 100% Calm Calm 1.0 mph1.6 kmh 29.63 in1003.4 mb 0.01 in0.3 mm 0.00 in0.0 mm 0.01 in0.3 mm
01:25 AM 54.0°F12.2°C 53.4°F11.9°C 100% Calm Calm 1.0 mph1.6 kmh 29.63 in1003.4 mb 0.01 in0.3 mm 0.00 in0.0 mm 0.01 in0.3 mm
01:30 AM 54.0°F12.2°C 53.4°F11.9°C 100% Calm Calm 2.0 mph3.2 kmh 29.63 in1003.4 mb 0.01 in0.3 mm 0.00 in0.0 mm 0.01 in0.3 mm
01:35 AM 54.0°F12.2°C 53.4°F11.9°C 100% Calm Calm 2.0 mph3.2 kmh 29.63 in1003.4 mb 0.01 in0.3 mm 0.00 in0.0 mm 0.01 in0.3 mm
01:40 AM 53.9°F12.2°C 53.3°F11.8°C 100% Calm Calm 2.0 mph3.2 kmh 29.63 in1003.4 mb 0.01 in0.3 mm 0.00 in0.0 mm 0.01 in0.3 mm
01:45 AM 53.9°F12.2°C 53.3°F11.8°C 100% Calm Calm 2.0 mph3.2 kmh 29.63 in1003.4 mb 0.01 in0.3 mm 0.00 in0.0 mm 0.01 in0.3 mm
01:50 AM 53.9°F12.2°C 53.3°F11.8°C 100% Calm Calm 2.0 mph3.2 kmh 29.64 in1003.7 mb 0.01 in0.3 mm 0.00 in0.0 mm 0.01 in0.3 mm
01:55 AM 53.9°F12.2°C 53.3°F11.8°C 100% Calm Calm 2.0 mph3.2 kmh 29.63 in1003.4 mb 0.02 in0.5 mm 0.12 in3.0 mm 0.02 in0.5 mm
02:00 AM 53.9°F12.2°C 53.3°F11.8°C 100% Calm Calm 1.0 mph1.6 kmh 29.63 in1003.4 mb 0.02 in0.5 mm 0.00 in0.0 mm 0.02 in0.5 mm
02:05 AM 53.9°F12.2°C 53.3°F11.8°C 100% Calm Calm 1.0 mph1.6 kmh 29.64 in1003.7 mb 0.02 in0.5 mm 0.00 in0.0 mm 0.02 in0.5 mm
02:10 AM 53.8°F12.1°C 53.2°F11.8°C 100% Calm Calm -- 29.64 in1003.7 mb 0.01 in0.3 mm 0.00 in0.0 mm 0.02 in0.5 mm
02:15 AM 53.8°F12.1°C 53.2°F11.8°C 100% Calm Calm -- 29.64 in1003.7 mb 0.01 in0.3 mm 0.00 in0.0 mm 0.02 in0.5 mm
02:20 AM 53.8°F12.1°C 53.2°F11.8°C 100% Calm Calm -- 29.64 in1003.7 mb 0.01 in0.3 mm 0.00 in0.0 mm 0.02 in0.5 mm
02:25 AM 53.7°F12.1°C 53.1°F11.7°C 100% Calm Calm -- 29.64 in1003.7 mb 0.01 in0.3 mm 0.00 in0.0 mm 0.02 in0.5 mm
02:30 AM 53.6°F12.0°C 53.0°F11.7°C 100% Calm Calm -- 29.64 in1003.7 mb 0.01 in0.3 mm 0.00 in0.0 mm 0.02 in0.5 mm
02:35 AM 53.6°F12.0°C 53.0°F11.7°C 100% Calm Calm -- 29.64 in1003.7 mb 0.01 in0.3 mm 0.00 in0.0 mm 0.02 in0.5 mm
02:40 AM 53.5°F11.9°C 52.9°F11.6°C 100% Calm Calm -- 29.64 in1003.7 mb 0.01 in0.3 mm 0.00 in0.0 mm 0.02 in0.5 mm
02:45 AM 53.5°F11.9°C 52.9°F11.6°C 100% Calm Calm -- 29.64 in1003.7 mb 0.01 in0.3 mm 0.00 in0.0 mm 0.02 in0.5 mm
02:50 AM 53.4°F11.9°C 52.8°F11.6°C 100% Calm Calm -- 29.64 in1003.7 mb 0.01 in0.3 mm 0.00 in0.0 mm 0.02 in0.5 mm
02:55 AM 53.4°F11.9°C 52.8°F11.6°C 100% Calm Calm -- 29.64 in1003.7 mb 0.00 in0.0 mm 0.00 in0.0 mm 0.02 in0.5 mm
03:00 AM 53.3°F11.8°C 52.8°F11.6°C 100% Calm Calm 1.0 mph1.6 kmh 29.64 in1003.7 mb 0.00 in0.0 mm 0.00 in0.0 mm 0.02 in0.5 mm
03:05 AM 53.2°F11.8°C 52.7°F11.5°C 100% Calm Calm 1.0 mph1.6 kmh 29.64 in1003.7 mb 0.00 in0.0 mm 0.00 in0.0 mm 0.02 in0.5 mm
03:10 AM 53.2°F11.8°C 52.7°F11.5°C 100% Calm Calm -- 29.64 in1003.7 mb 0.00 in0.0 mm 0.00 in0.0 mm 0.02 in0.5 mm
03:15 AM 53.2°F11.8°C 52.7°F11.5°C 100% Calm Calm -- 29.64 in1003.7 mb 0.00 in0.0 mm 0.00 in0.0 mm 0.02 in0.5 mm
03:20 AM 53.2°F11.8°C 52.7°F11.5°C 100% Calm Calm -- 29.64 in1003.7 mb 0.01 in0.3 mm 0.12 in3.0 mm 0.03 in0.8 mm
03:25 AM 53.1°F11.7°C 52.6°F11.4°C 100% Calm Calm -- 29.64 in1003.7 mb 0.01 in0.3 mm 0.00 in0.0 mm 0.03 in0.8 mm
03:30 AM 53.0°F11.7°C 52.5°F11.4°C 100% Calm Calm -- 29.64 in1003.7 mb 0.01 in0.3 mm 0.00 in0.0 mm 0.03 in0.8 mm
03:35 AM 53.0°F11.7°C 52.5°F11.4°C 100% Calm Calm -- 29.64 in1003.7 mb 0.01 in0.3 mm 0.00 in0.0 mm 0.03 in0.8 mm
03:40 AM 52.9°F11.6°C 52.4°F11.3°C 100% Calm Calm -- 29.64 in1003.7 mb 0.01 in0.3 mm 0.00 in0.0 mm 0.03 in0.8 mm
03:45 AM 52.9°F11.6°C 52.4°F11.3°C 100% Calm Calm -- 29.64 in1003.7 mb 0.01 in0.3 mm 0.00 in0.0 mm 0.03 in0.8 mm
03:50 AM 52.7°F11.5°C 52.2°F11.2°C 100% Calm Calm -- 29.64 in1003.7 mb 0.01 in0.3 mm 0.00 in0.0 mm 0.03 in0.8 mm
03:55 AM 52.7°F11.5°C 52.2°F11.2°C 100% Calm Calm 1.0 mph1.6 kmh 29.64 in1003.7 mb 0.01 in0.3 mm 0.00 in0.0 mm 0.03 in0.8 mm
04:00 AM 52.6°F11.4°C 52.1°F11.2°C 100% Calm Calm 1.0 mph1.6 kmh 29.64 in1003.7 mb 0.01 in0.3 mm 0.00 in0.0 mm 0.03 in0.8 mm
04:05 AM 52.6°F11.4°C 52.1°F11.2°C 100% Calm Calm -- 29.64 in1003.7 mb 0.01 in0.3 mm 0.00 in0.0 mm 0.03 in0.8 mm
04:10 AM 52.5°F11.4°C 52.0°F11.1°C 100% Calm Calm 1.0 mph1.6 kmh 29.64 in1003.7 mb 0.01 in0.3 mm 0.00 in0.0 mm 0.03 in0.8 mm
04:15 AM 52.5°F11.4°C 52.0°F11.1°C 100% Calm Calm 2.0 mph3.2 kmh 29.64 in1003.7 mb 0.01 in0.3 mm 0.00 in0.0 mm 0.03 in0.8 mm
04:20 AM 52.5°F11.4°C 52.0°F11.1°C 100% Calm Calm 2.0 mph3.2 kmh 29.64 in1003.7 mb 0.00 in0.0 mm 0.00 in0.0 mm 0.03 in0.8 mm
04:25 AM 52.5°F11.4°C 52.0°F11.1°C 100% Calm Calm 2.0 mph3.2 kmh 29.64 in1003.7 mb 0.00 in0.0 mm 0.00 in0.0 mm 0.03 in0.8 mm
04:30 AM 52.5°F11.4°C 52.0°F11.1°C 100% Calm Calm 1.0 mph1.6 kmh 29.64 in1003.7 mb 0.00 in0.0 mm 0.00 in0.0 mm 0.03 in0.8 mm
04:35 AM 52.5°F11.4°C 52.0°F11.1°C 100% Calm Calm 1.0 mph1.6 kmh 29.64 in1003.7 mb 0.00 in0.0 mm 0.00 in0.0 mm 0.03 in0.8 mm
04:40 AM 52.6°F11.4°C 52.1°F11.2°C 100% Calm Calm 2.0 mph3.2 kmh 29.65 in1004.1 mb 0.00 in0.0 mm 0.00 in0.0 mm 0.03 in0.8 mm
04:45 AM 52.6°F11.4°C 52.1°F11.2°C 100% Calm Calm 2.0 mph3.2 kmh 29.65 in1004.1 mb 0.00 in0.0 mm 0.00 in0.0 mm 0.03 in0.8 mm
04:50 AM 52.7°F11.5°C 52.2°F11.2°C 100% Calm Calm 2.0 mph3.2 kmh 29.65 in1004.1 mb 0.00 in0.0 mm 0.00 in0.0 mm 0.03 in0.8 mm
04:55 AM 52.8°F11.6°C 52.3°F11.3°C 100% Calm Calm 2.0 mph3.2 kmh 29.65 in1004.1 mb 0.00 in0.0 mm 0.00 in0.0 mm 0.03 in0.8 mm
05:00 AM 52.8°F11.6°C 52.3°F11.3°C 100% Calm Calm 2.0 mph3.2 kmh 29.65 in1004.1 mb 0.00 in0.0 mm 0.00 in0.0 mm 0.03 in0.8 mm
05:05 AM 52.9°F11.6°C 52.4°F11.3°C 100% Calm Calm 2.0 mph3.2 kmh 29.65 in1004.1 mb 0.00 in0.0 mm 0.00 in0.0 mm 0.03 in0.8 mm
05:10 AM 52.9°F11.6°C 52.4°F11.3°C 100% Calm Calm 2.0 mph3.2 kmh 29.65 in1004.1 mb 0.00 in0.0 mm 0.00 in0.0 mm 0.03 in0.8 mm
05:15 AM 52.9°F11.6°C 52.4°F11.3°C 100% Calm Calm 2.0 mph3.2 kmh 29.65 in1004.1 mb 0.00 in0.0 mm 0.00 in0.0 mm 0.03 in0.8 mm
05:20 AM 53.0°F11.7°C 52.5°F11.4°C 100% Calm Calm 2.0 mph3.2 kmh 29.65 in1004.1 mb 0.00 in0.0 mm 0.00 in0.0 mm 0.03 in0.8 mm
05:25 AM 53.0°F11.7°C 52.5°F11.4°C 100% Calm Calm 2.0 mph3.2 kmh 29.65 in1004.1 mb 0.00 in0.0 mm 0.00 in0.0 mm 0.03 in0.8 mm
05:30 AM 53.0°F11.7°C 52.7°F11.5°C 99% Calm Calm 2.0 mph3.2 kmh 29.65 in1004.1 mb 0.00 in0.0 mm 0.00 in0.0 mm 0.03 in0.8 mm
05:35 AM 53.1°F11.7°C 52.8°F11.6°C 99% Calm Calm 2.0 mph3.2 kmh 29.65 in1004.1 mb 0.00 in0.0 mm 0.00 in0.0 mm 0.03 in0.8 mm
05:40 AM 53.2°F11.8°C 52.9°F11.6°C 99% 1.0 mph S1.6 kmh S 3.0 mph4.8 kmh 29.65 in1004.1 mb 0.00 in0.0 mm 0.00 in0.0 mm 0.03 in0.8 mm
05:45 AM 53.2°F11.8°C 52.9°F11.6°C 99% Calm Calm 3.0 mph4.8 kmh 29.66 in1004.4 mb 0.00 in0.0 mm 0.00 in0.0 mm 0.03 in0.8 mm
05:50 AM 53.3°F11.8°C 53.0°F11.7°C 99% Calm Calm 2.0 mph3.2 kmh 29.66 in1004.4 mb 0.00 in0.0 mm 0.00 in0.0 mm 0.03 in0.8 mm
05:55 AM 53.3°F11.8°C 52.8°F11.6°C 100% Calm Calm 2.0 mph3.2 kmh 29.66 in1004.4 mb 0.00 in0.0 mm 0.00 in0.0 mm 0.03 in0.8 mm
06:00 AM 53.5°F11.9°C 52.9°F11.6°C 100% Calm Calm 1.0 mph1.6 kmh 29.66 in1004.4 mb 0.00 in0.0 mm 0.00 in0.0 mm 0.03 in0.8 mm
06:05 AM 53.6°F12.0°C 53.0°F11.7°C 100% Calm Calm -- 29.66 in1004.4 mb 0.00 in0.0 mm 0.00 in0.0 mm 0.03 in0.8 mm
06:10 AM 53.7°F12.1°C 53.4°F11.9°C 99% Calm Calm 1.0 mph1.6 kmh 29.66 in1004.4 mb 0.00 in0.0 mm 0.00 in0.0 mm 0.03 in0.8 mm
06:15 AM 53.7°F12.1°C 53.4°F11.9°C 99% Calm Calm 1.0 mph1.6 kmh 29.66 in1004.4 mb 0.00 in0.0 mm 0.00 in0.0 mm 0.03 in0.8 mm
06:20 AM 53.8°F12.1°C 53.5°F11.9°C 99% Calm Calm -- 29.66 in1004.4 mb 0.00 in0.0 mm 0.00 in0.0 mm 0.03 in0.8 mm
06:25 AM 53.9°F12.2°C 53.6°F12.0°C 99% Calm Calm 2.0 mph3.2 kmh 29.66 in1004.4 mb 0.00 in0.0 mm 0.00 in0.0 mm 0.03 in0.8 mm
06:30 AM 54.1°F12.3°C 53.8°F12.1°C 99% Calm Calm 2.0 mph3.2 kmh 29.66 in1004.4 mb 0.00 in0.0 mm 0.00 in0.0 mm 0.03 in0.8 mm
06:35 AM 54.1°F12.3°C 53.8°F12.1°C 99% Calm Calm 2.0 mph3.2 kmh 29.66 in1004.4 mb 0.00 in0.0 mm 0.00 in0.0 mm 0.03 in0.8 mm
06:40 AM 54.1°F12.3°C 53.8°F12.1°C 99% 1.0 mph S1.6 kmh S 3.0 mph4.8 kmh 29.66 in1004.4 mb 0.00 in0.0 mm 0.00 in0.0 mm 0.03 in0.8 mm
06:45 AM 54.1°F12.3°C 53.8°F12.1°C 99% Calm Calm 3.0 mph4.8 kmh 29.66 in1004.4 mb 0.00 in0.0 mm 0.00 in0.0 mm 0.03 in0.8 mm
06:50 AM 54.1°F12.3°C 53.8°F12.1°C 99% Calm Calm 2.0 mph3.2 kmh 29.66 in1004.4 mb 0.00 in0.0 mm 0.00 in0.0 mm 0.03 in0.8 mm
06:55 AM 54.2°F12.3°C 53.9°F12.2°C 99% Calm Calm 3.0 mph4.8 kmh 29.67 in1004.7 mb 0.00 in0.0 mm 0.00 in0.0 mm 0.03 in0.8 mm
07:00 AM 54.3°F12.4°C 54.0°F12.2°C 99% Calm Calm 3.0 mph4.8 kmh 29.67 in1004.7 mb 0.00 in0.0 mm 0.00 in0.0 mm 0.03 in0.8 mm
07:05 AM 54.3°F12.4°C 54.0°F12.2°C 99% Calm Calm 3.0 mph4.8 kmh 29.67 in1004.7 mb 0.00 in0.0 mm 0.00 in0.0 mm 0.03 in0.8 mm
07:10 AM 54.4°F12.4°C 54.1°F12.3°C 99% 1.0 mph S1.6 kmh S 3.0 mph4.8 kmh 29.67 in1004.7 mb 0.00 in0.0 mm 0.00 in0.0 mm 0.03 in0.8 mm
07:15 AM 54.6°F12.6°C 54.3°F12.4°C 99% 1.0 mph S1.6 kmh S 3.0 mph4.8 kmh 29.67 in1004.7 mb 0.00 in0.0 mm 0.00 in0.0 mm 0.03 in0.8 mm
07:20 AM 54.7°F12.6°C 54.4°F12.4°C 99% Calm Calm 4.0 mph6.4 kmh 29.67 in1004.7 mb 0.00 in0.0 mm 0.00 in0.0 mm 0.03 in0.8 mm
07:25 AM 54.7°F12.6°C 54.4°F12.4°C 99% Calm Calm 4.0 mph6.4 kmh 29.67 in1004.7 mb 0.00 in0.0 mm 0.00 in0.0 mm 0.03 in0.8 mm
07:30 AM 54.7°F12.6°C 54.4°F12.4°C 99% Calm Calm 2.0 mph3.2 kmh 29.67 in1004.7 mb 0.00 in0.0 mm 0.00 in0.0 mm 0.03 in0.8 mm
07:35 AM 54.7°F12.6°C 54.4°F12.4°C 99% Calm Calm -- 29.67 in1004.7 mb 0.00 in0.0 mm 0.00 in0.0 mm 0.03 in0.8 mm
07:40 AM 54.7°F12.6°C 54.4°F12.4°C 99% Calm Calm 2.0 mph3.2 kmh 29.67 in1004.7 mb 0.00 in0.0 mm 0.00 in0.0 mm 0.03 in0.8 mm
07:45 AM 54.7°F12.6°C 54.4°F12.4°C 99% Calm Calm 2.0 mph3.2 kmh 29.67 in1004.7 mb 0.00 in0.0 mm 0.00 in0.0 mm 0.03 in0.8 mm
07:50 AM 54.8°F12.7°C 54.5°F12.5°C 99% Calm Calm 2.0 mph3.2 kmh 29.67 in1004.7 mb 0.00 in0.0 mm 0.00 in0.0 mm 0.03 in0.8 mm
07:55 AM 54.8°F12.7°C 54.5°F12.5°C 99% Calm Calm 3.0 mph4.8 kmh 29.67 in1004.7 mb 0.00 in0.0 mm 0.00 in0.0 mm 0.03 in0.8 mm
08:00 AM 54.8°F12.7°C 54.5°F12.5°C 99% 1.0 mph S1.6 kmh S 4.0 mph6.4 kmh 29.67 in1004.7 mb 0.00 in0.0 mm 0.00 in0.0 mm 0.03 in0.8 mm
08:10 AM 54.8°F12.7°C 54.5°F12.5°C 99% 1.0 mph SW1.6 kmh SW 4.0 mph6.4 kmh 29.67 in1004.7 mb 0.00 in0.0 mm 0.00 in0.0 mm 0.03 in0.8 mm
08:15 AM 54.8°F12.7°C 54.5°F12.5°C 99% 1.0 mph SW1.6 kmh SW 4.0 mph6.4 kmh 29.68 in1005.1 mb 0.00 in0.0 mm 0.00 in0.0 mm 0.03 in0.8 mm
08:20 AM 54.8°F12.7°C 54.5°F12.5°C 99% 1.0 mph SW1.6 kmh SW 4.0 mph6.4 kmh 29.68 in1005.1 mb 0.00 in0.0 mm 0.00 in0.0 mm 0.03 in0.8 mm
08:25 AM 54.8°F12.7°C 54.5°F12.5°C 99% 1.0 mph SW1.6 kmh SW 5.0 mph8.0 kmh 29.68 in1005.1 mb 0.00 in0.0 mm 0.00 in0.0 mm 0.03 in0.8 mm
08:30 AM 54.9°F12.7°C 54.6°F12.6°C 99% 1.0 mph SW1.6 kmh SW 5.0 mph8.0 kmh 29.68 in1005.1 mb 0.00 in0.0 mm 0.00 in0.0 mm 0.03 in0.8 mm
08:35 AM 54.8°F12.7°C 54.5°F12.5°C 99% 1.0 mph SW1.6 kmh SW 4.0 mph6.4 kmh 29.68 in1005.1 mb 0.00 in0.0 mm 0.00 in0.0 mm 0.03 in0.8 mm
08:40 AM 54.6°F12.6°C 54.3°F12.4°C 99% 1.0 mph SW1.6 kmh SW 4.0 mph6.4 kmh 29.68 in1005.1 mb 0.00 in0.0 mm 0.00 in0.0 mm 0.03 in0.8 mm
08:45 AM 54.6°F12.6°C 54.3°F12.4°C 99% 1.0 mph SW1.6 kmh SW 4.0 mph6.4 kmh 29.68 in1005.1 mb 0.00 in0.0 mm 0.00 in0.0 mm 0.03 in0.8 mm
08:50 AM 54.6°F12.6°C 54.3°F12.4°C 99% Calm Calm 2.0 mph3.2 kmh 29.68 in1005.1 mb 0.00 in0.0 mm 0.00 in0.0 mm 0.03 in0.8 mm
08:55 AM 54.6°F12.6°C 54.3°F12.4°C 99% Calm Calm 3.0 mph4.8 kmh 29.68 in1005.1 mb 0.00 in0.0 mm 0.00 in0.0 mm 0.03 in0.8 mm
09:00 AM 54.6°F12.6°C 54.3°F12.4°C 99% 1.0 mph SW1.6 kmh SW 3.0 mph4.8 kmh 29.68 in1005.1 mb 0.00 in0.0 mm 0.00 in0.0 mm 0.03 in0.8 mm
09:05 AM 54.7°F12.6°C 54.4°F12.4°C 99% 1.0 mph SW1.6 kmh SW 3.0 mph4.8 kmh 29.68 in1005.1 mb 0.00 in0.0 mm 0.00 in0.0 mm 0.03 in0.8 mm
09:10 AM 54.8°F12.7°C 54.5°F12.5°C 99% 1.0 mph SW1.6 kmh SW 4.0 mph6.4 kmh 29.68 in1005.1 mb 0.00 in0.0 mm 0.00 in0.0 mm 0.03 in0.8 mm
09:15 AM 54.8°F12.7°C 54.5°F12.5°C 99% 1.0 mph SW1.6 kmh SW 4.0 mph6.4 kmh 29.68 in1005.1 mb 0.00 in0.0 mm 0.00 in0.0 mm 0.03 in0.8 mm
09:20 AM 54.8°F12.7°C 54.5°F12.5°C 99% 1.0 mph SW1.6 kmh SW 4.0 mph6.4 kmh 29.68 in1005.1 mb 0.00 in0.0 mm 0.00 in0.0 mm 0.03 in0.8 mm
09:25 AM 54.8°F12.7°C 54.5°F12.5°C 99% 1.0 mph SW1.6 kmh SW 4.0 mph6.4 kmh 29.68 in1005.1 mb 0.00 in0.0 mm 0.00 in0.0 mm 0.03 in0.8 mm
09:30 AM 54.8°F12.7°C 54.5°F12.5°C 99% 1.0 mph SW1.6 kmh SW 4.0 mph6.4 kmh 29.68 in1005.1 mb 0.00 in0.0 mm 0.00 in0.0 mm 0.03 in0.8 mm
09:35 AM 54.8°F12.7°C 54.5°F12.5°C 99% Calm Calm 3.0 mph4.8 kmh 29.68 in1005.1 mb 0.00 in0.0 mm 0.00 in0.0 mm 0.03 in0.8 mm
09:40 AM 54.9°F12.7°C 54.6°F12.6°C 99% Calm Calm -- 29.69 in1005.4 mb 0.00 in0.0 mm 0.00 in0.0 mm 0.03 in0.8 mm
09:45 AM 55.1°F12.8°C 54.8°F12.7°C 99% Calm Calm 2.0 mph3.2 kmh 29.69 in1005.4 mb 0.00 in0.0 mm 0.00 in0.0 mm 0.03 in0.8 mm
09:50 AM 55.1°F12.8°C 54.8°F12.7°C 99% Calm Calm 2.0 mph3.2 kmh 29.69 in1005.4 mb 0.00 in0.0 mm 0.00 in0.0 mm 0.03 in0.8 mm
09:55 AM 55.1°F12.8°C 54.8°F12.7°C 99% 1.0 mph SW1.6 kmh SW 3.0 mph4.8 kmh 29.69 in1005.4 mb 0.00 in0.0 mm 0.00 in0.0 mm 0.03 in0.8 mm
10:00 AM 55.0°F12.8°C 54.7°F12.6°C 99% Calm Calm 3.0 mph4.8 kmh 29.69 in1005.4 mb 0.00 in0.0 mm 0.00 in0.0 mm 0.03 in0.8 mm
10:05 AM 55.0°F12.8°C 54.7°F12.6°C 99% Calm Calm 1.0 mph1.6 kmh 29.69 in1005.4 mb 0.00 in0.0 mm 0.00 in0.0 mm 0.03 in0.8 mm
10:10 AM 55.1°F12.8°C 54.8°F12.7°C 99% Calm Calm 2.0 mph3.2 kmh 29.69 in1005.4 mb 0.00 in0.0 mm 0.00 in0.0 mm 0.03 in0.8 mm
10:15 AM 55.2°F12.9°C 54.9°F12.7°C 99% Calm Calm 2.0 mph3.2 kmh 29.69 in1005.4 mb 0.00 in0.0 mm 0.00 in0.0 mm 0.03 in0.8 mm
10:20 AM 55.3°F12.9°C 55.0°F12.8°C 99% Calm Calm -- 29.69 in1005.4 mb 0.00 in0.0 mm 0.00 in0.0 mm 0.03 in0.8 mm
10:25 AM 55.4°F13.0°C 55.1°F12.8°C 99% Calm Calm -- 29.69 in1005.4 mb 0.00 in0.0 mm 0.00 in0.0 mm 0.03 in0.8 mm
10:30 AM 55.5°F13.1°C 55.2°F12.9°C 99% Calm Calm 2.0 mph3.2 kmh 29.69 in1005.4 mb 0.00 in0.0 mm 0.00 in0.0 mm 0.03 in0.8 mm
10:35 AM 55.6°F13.1°C 55.3°F12.9°C 99% Calm Calm 2.0 mph3.2 kmh 29.69 in1005.4 mb 0.00 in0.0 mm 0.00 in0.0 mm 0.03 in0.8 mm
10:40 AM 55.6°F13.1°C 55.3°F12.9°C 99% Calm Calm 2.0 mph3.2 kmh 29.69 in1005.4 mb 0.00 in0.0 mm 0.00 in0.0 mm 0.03 in0.8 mm
10:45 AM 55.5°F13.1°C 55.2°F12.9°C 99% Calm Calm 1.0 mph1.6 kmh 29.69 in1005.4 mb 0.00 in0.0 mm 0.00 in0.0 mm 0.03 in0.8 mm
10:50 AM 55.7°F13.2°C 55.4°F13.0°C 99% Calm Calm 1.0 mph1.6 kmh 29.69 in1005.4 mb 0.00 in0.0 mm 0.00 in0.0 mm 0.03 in0.8 mm
10:55 AM 56.0°F13.3°C 55.7°F13.2°C 99% Calm Calm 2.0 mph3.2 kmh 29.69 in1005.4 mb 0.00 in0.0 mm 0.00 in0.0 mm 0.03 in0.8 mm
11:00 AM 56.2°F13.4°C 55.9°F13.3°C 99% Calm Calm 2.0 mph3.2 kmh 29.69 in1005.4 mb 0.00 in0.0 mm 0.00 in0.0 mm 0.03 in0.8 mm
11:05 AM 56.4°F13.6°C 56.1°F13.4°C 99% Calm Calm 2.0 mph3.2 kmh 29.69 in1005.4 mb 0.00 in0.0 mm 0.00 in0.0 mm 0.03 in0.8 mm
11:10 AM 56.7°F13.7°C 56.4°F13.6°C 99% Calm Calm 3.0 mph4.8 kmh 29.69 in1005.4 mb 0.00 in0.0 mm 0.00 in0.0 mm 0.03 in0.8 mm
11:15 AM 57.0°F13.9°C 56.7°F13.7°C 99% Calm Calm 3.0 mph4.8 kmh 29.69 in1005.4 mb 0.00 in0.0 mm 0.00 in0.0 mm 0.03 in0.8 mm
11:20 AM 57.0°F13.9°C 56.7°F13.7°C 99% Calm Calm 4.0 mph6.4 kmh 29.69 in1005.4 mb 0.00 in0.0 mm 0.00 in0.0 mm 0.03 in0.8 mm
11:25 AM 57.1°F13.9°C 56.8°F13.8°C 99% Calm Calm 4.0 mph6.4 kmh 29.69 in1005.4 mb 0.00 in0.0 mm 0.00 in0.0 mm 0.03 in0.8 mm
11:30 AM 57.2°F14.0°C 56.9°F13.8°C 99% Calm Calm 4.0 mph6.4 kmh 29.69 in1005.4 mb 0.00 in0.0 mm 0.00 in0.0 mm 0.03 in0.8 mm
11:35 AM 57.4°F14.1°C 57.1°F13.9°C 99% Calm Calm 3.0 mph4.8 kmh 29.69 in1005.4 mb 0.00 in0.0 mm 0.00 in0.0 mm 0.03 in0.8 mm
11:40 AM 57.8°F14.3°C 57.5°F14.2°C 99% 1.0 mph SW1.6 kmh SW 4.0 mph6.4 kmh 29.69 in1005.4 mb 0.00 in0.0 mm 0.00 in0.0 mm 0.03 in0.8 mm
11:45 AM 58.0°F14.4°C 57.7°F14.3°C 99% 1.0 mph SW1.6 kmh SW 4.0 mph6.4 kmh 29.69 in1005.4 mb 0.00 in0.0 mm 0.00 in0.0 mm 0.03 in0.8 mm
11:50 AM 57.9°F14.4°C 57.6°F14.2°C 99% Calm Calm 2.0 mph3.2 kmh 29.69 in1005.4 mb 0.00 in0.0 mm 0.00 in0.0 mm 0.03 in0.8 mm
11:55 AM 57.4°F14.1°C 57.1°F13.9°C 99% Calm Calm 2.0 mph3.2 kmh 29.70 in1005.8 mb 0.00 in0.0 mm 0.00 in0.0 mm 0.03 in0.8 mm
12:00 PM 57.3°F14.1°C 57.0°F13.9°C 99% Calm Calm 1.0 mph1.6 kmh 29.70 in1005.8 mb 0.00 in0.0 mm 0.00 in0.0 mm 0.03 in0.8 mm
12:05 PM 57.5°F14.2°C 57.2°F14.0°C 99% Calm Calm 1.0 mph1.6 kmh 29.70 in1005.8 mb 0.00 in0.0 mm 0.00 in0.0 mm 0.03 in0.8 mm
12:10 PM 57.6°F14.2°C 57.3°F14.1°C 99% Calm Calm 1.0 mph1.6 kmh 29.70 in1005.8 mb 0.00 in0.0 mm 0.00 in0.0 mm 0.03 in0.8 mm
12:15 PM 57.8°F14.3°C 57.5°F14.2°C 99% Calm Calm 3.0 mph4.8 kmh 29.70 in1005.8 mb 0.00 in0.0 mm 0.00 in0.0 mm 0.03 in0.8 mm
12:20 PM 58.0°F14.4°C 57.7°F14.3°C 99% Calm Calm 3.0 mph4.8 kmh 29.70 in1005.8 mb 0.00 in0.0 mm 0.00 in0.0 mm 0.03 in0.8 mm
12:25 PM 58.2°F14.6°C 57.9°F14.4°C 99% Calm Calm 3.0 mph4.8 kmh 29.70 in1005.8 mb 0.00 in0.0 mm 0.00 in0.0 mm 0.03 in0.8 mm
12:30 PM 58.3°F14.6°C 58.0°F14.4°C 99% Calm Calm 3.0 mph4.8 kmh 29.70 in1005.8 mb 0.00 in0.0 mm 0.00 in0.0 mm 0.03 in0.8 mm
12:35 PM 58.2°F14.6°C 57.9°F14.4°C 99% Calm Calm 2.0 mph3.2 kmh 29.70 in1005.8 mb 0.00 in0.0 mm 0.00 in0.0 mm 0.03 in0.8 mm
12:40 PM 57.8°F14.3°C 57.2°F14.0°C 100% Calm Calm 2.0 mph3.2 kmh 29.70 in1005.8 mb 0.00 in0.0 mm 0.00 in0.0 mm 0.03 in0.8 mm
12:45 PM 57.7°F14.3°C 57.1°F13.9°C 100% Calm Calm 1.0 mph1.6 kmh 29.70 in1005.8 mb 0.00 in0.0 mm 0.00 in0.0 mm 0.03 in0.8 mm
12:50 PM 57.8°F14.3°C 57.2°F14.0°C 100% Calm Calm -- 29.70 in1005.8 mb 0.00 in0.0 mm 0.00 in0.0 mm 0.03 in0.8 mm
12:55 PM 58.0°F14.4°C 57.4°F14.1°C 100% Calm Calm -- 29.70 in1005.8 mb 0.00 in0.0 mm 0.00 in0.0 mm 0.03 in0.8 mm
01:00 PM 58.1°F14.5°C 57.5°F14.2°C 100% Calm Calm 2.0 mph3.2 kmh 29.70 in1005.8 mb 0.00 in0.0 mm 0.00 in0.0 mm 0.03 in0.8 mm
01:05 PM 58.5°F14.7°C 57.9°F14.4°C 100% Calm Calm 2.0 mph3.2 kmh 29.70 in1005.8 mb 0.00 in0.0 mm 0.00 in0.0 mm 0.03 in0.8 mm
01:10 PM 58.5°F14.7°C 57.9°F14.4°C 100% Calm Calm 1.0 mph1.6 kmh 29.70 in1005.8 mb 0.00 in0.0 mm 0.00 in0.0 mm 0.03 in0.8 mm
01:15 PM 58.6°F14.8°C 58.0°F14.4°C 100% Calm Calm 1.0 mph1.6 kmh 29.69 in1005.4 mb 0.00 in0.0 mm 0.00 in0.0 mm 0.03 in0.8 mm
01:20 PM 58.7°F14.8°C 58.1°F14.5°C 100% Calm Calm -- 29.69 in1005.4 mb 0.00 in0.0 mm 0.00 in0.0 mm 0.03 in0.8 mm
01:25 PM 58.8°F14.9°C 58.2°F14.6°C 100% Calm Calm 1.0 mph1.6 kmh 29.69 in1005.4 mb 0.00 in0.0 mm 0.00 in0.0 mm 0.03 in0.8 mm
01:30 PM 59.0°F15.0°C 58.4°F14.7°C 100% Calm Calm 1.0 mph1.6 kmh 29.69 in1005.4 mb 0.00 in0.0 mm 0.00 in0.0 mm 0.03 in0.8 mm
01:35 PM 59.5°F15.3°C 58.9°F14.9°C 100% Calm Calm 1.0 mph1.6 kmh 29.69 in1005.4 mb 0.00 in0.0 mm 0.00 in0.0 mm 0.03 in0.8 mm
01:40 PM 60.0°F15.6°C 59.1°F15.1°C 97% Calm Calm 3.0 mph4.8 kmh 29.69 in1005.4 mb 0.00 in0.0 mm 0.00 in0.0 mm 0.03 in0.8 mm
01:45 PM 60.5°F15.8°C 59.4°F15.2°C 96% Calm Calm 3.0 mph4.8 kmh 29.69 in1005.4 mb 0.00 in0.0 mm 0.00 in0.0 mm 0.03 in0.8 mm
01:50 PM 60.7°F15.9°C 59.3°F15.2°C 95% Calm Calm 3.0 mph4.8 kmh 29.69 in1005.4 mb 0.00 in0.0 mm 0.00 in0.0 mm 0.03 in0.8 mm
01:55 PM 60.9°F16.1°C 58.9°F14.9°C 93% Calm Calm 3.0 mph4.8 kmh 29.69 in1005.4 mb 0.00 in0.0 mm 0.00 in0.0 mm 0.03 in0.8 mm
02:00 PM 60.8°F16.0°C 57.5°F14.2°C 89% 1.0 mph SSE1.6 kmh SSE 4.0 mph6.4 kmh 29.69 in1005.4 mb 0.00 in0.0 mm 0.00 in0.0 mm 0.03 in0.8 mm
02:05 PM 60.9°F16.1°C 58.3°F14.6°C 91% 1.0 mph SSW1.6 kmh SSW 5.0 mph8.0 kmh 29.69 in1005.4 mb 0.00 in0.0 mm 0.00 in0.0 mm 0.03 in0.8 mm
02:10 PM 61.1°F16.2°C 57.8°F14.3°C 89% 1.0 mph SSW1.6 kmh SSW 5.0 mph8.0 kmh 29.69 in1005.4 mb 0.00 in0.0 mm 0.00 in0.0 mm 0.03 in0.8 mm
02:15 PM 61.4°F16.3°C 58.1°F14.5°C 89% 1.0 mph SE1.6 kmh SE 4.0 mph6.4 kmh 29.69 in1005.4 mb 0.00 in0.0 mm 0.00 in0.0 mm 0.03 in0.8 mm
02:20 PM 61.6°F16.4°C 58.6°F14.8°C 90% Calm Calm 4.0 mph6.4 kmh 29.69 in1005.4 mb 0.00 in0.0 mm 0.00 in0.0 mm 0.03 in0.8 mm
02:25 PM 61.8°F16.6°C 57.9°F14.4°C 87% Calm Calm 3.0 mph4.8 kmh 29.69 in1005.4 mb 0.00 in0.0 mm 0.00 in0.0 mm 0.03 in0.8 mm
02:30 PM 62.1°F16.7°C 57.9°F14.4°C 86% 1.0 mph SW1.6 kmh SW 5.0 mph8.0 kmh 29.69 in1005.4 mb 0.00 in0.0 mm 0.00 in0.0 mm 0.03 in0.8 mm
02:35 PM 62.5°F16.9°C 57.3°F14.1°C 83% 2.0 mph SW3.2 kmh SW 5.0 mph8.0 kmh 29.69 in1005.4 mb 0.00 in0.0 mm 0.00 in0.0 mm 0.03 in0.8 mm
02:40 PM 62.9°F17.2°C 57.7°F14.3°C 83% 2.0 mph SW3.2 kmh SW 5.0 mph8.0 kmh 29.69 in1005.4 mb 0.00 in0.0 mm 0.00 in0.0 mm 0.03 in0.8 mm
02:45 PM 63.1°F17.3°C 57.2°F14.0°C 81% 2.0 mph SW3.2 kmh SW 5.0 mph8.0 kmh 29.69 in1005.4 mb 0.00 in0.0 mm 0.00 in0.0 mm 0.03 in0.8 mm
02:50 PM 63.2°F17.3°C 56.6°F13.7°C 79% 1.0 mph S1.6 kmh S 4.0 mph6.4 kmh 29.69 in1005.4 mb 0.00 in0.0 mm 0.00 in0.0 mm 0.03 in0.8 mm
02:55 PM 63.5°F17.5°C 57.9°F14.4°C 82% 1.0 mph SSE1.6 kmh SSE 4.0 mph6.4 kmh 29.68 in1005.1 mb 0.00 in0.0 mm 0.00 in0.0 mm 0.03 in0.8 mm
03:00 PM 63.5°F17.5°C 56.9°F13.8°C 79% 1.0 mph ESE1.6 kmh ESE 4.0 mph6.4 kmh 29.68 in1005.1 mb 0.00 in0.0 mm 0.00 in0.0 mm 0.03 in0.8 mm
03:05 PM 63.6°F17.6°C 57.7°F14.3°C 81% 1.0 mph E1.6 kmh E 4.0 mph6.4 kmh 29.68 in1005.1 mb 0.00 in0.0 mm 0.00 in0.0 mm 0.03 in0.8 mm
03:10 PM 63.6°F17.6°C 57.0°F13.9°C 79% Calm Calm 2.0 mph3.2 kmh 29.69 in1005.4 mb 0.00 in0.0 mm 0.00 in0.0 mm 0.03 in0.8 mm
03:15 PM 63.8°F17.7°C 57.5°F14.2°C 80% Calm Calm 3.0 mph4.8 kmh 29.69 in1005.4 mb 0.00 in0.0 mm 0.00 in0.0 mm 0.03 in0.8 mm
03:20 PM 64.1°F17.8°C 58.5°F14.7°C 82% Calm Calm 3.0 mph4.8 kmh 29.68 in1005.1 mb 0.00 in0.0 mm 0.00 in0.0 mm 0.03 in0.8 mm
03:25 PM 64.5°F18.1°C 57.1°F13.9°C 77% Calm Calm 1.0 mph1.6 kmh 29.68 in1005.1 mb 0.00 in0.0 mm 0.00 in0.0 mm 0.03 in0.8 mm
03:30 PM 64.9°F18.3°C 57.9°F14.4°C 78% Calm Calm 2.0 mph3.2 kmh 29.68 in1005.1 mb 0.00 in0.0 mm 0.00 in0.0 mm 0.03 in0.8 mm
03:35 PM 65.4°F18.6°C 58.0°F14.4°C 77% Calm Calm 6.0 mph9.7 kmh 29.68 in1005.1 mb 0.00 in0.0 mm 0.00 in0.0 mm 0.03 in0.8 mm
03:40 PM 65.8°F18.8°C 59.1°F15.1°C 79% 1.0 mph SW1.6 kmh SW 6.0 mph9.7 kmh 29.68 in1005.1 mb 0.00 in0.0 mm 0.00 in0.0 mm 0.03 in0.8 mm
03:45 PM 66.3°F19.1°C 57.4°F14.1°C 73% 1.0 mph SW1.6 kmh SW 5.0 mph8.0 kmh 29.68 in1005.1 mb 0.00 in0.0 mm 0.00 in0.0 mm 0.03 in0.8 mm
03:50 PM 66.4°F19.1°C 56.3°F13.5°C 70% 1.0 mph SSW1.6 kmh SSW 3.0 mph4.8 kmh 29.68 in1005.1 mb 0.00 in0.0 mm 0.00 in0.0 mm 0.03 in0.8 mm
03:55 PM 66.7°F19.3°C 57.4°F14.1°C 72% 1.0 mph S1.6 kmh S 4.0 mph6.4 kmh 29.68 in1005.1 mb 0.00 in0.0 mm 0.00 in0.0 mm 0.03 in0.8 mm
04:00 PM 66.9°F19.4°C 57.2°F14.0°C 71% 1.0 mph SW1.6 kmh SW 5.0 mph8.0 kmh 29.68 in1005.1 mb 0.00 in0.0 mm 0.00 in0.0 mm 0.03 in0.8 mm
04:05 PM 66.9°F19.4°C 56.4°F13.6°C 69% 1.0 mph SW1.6 kmh SW 5.0 mph8.0 kmh 29.68 in1005.1 mb 0.00 in0.0 mm 0.00 in0.0 mm 0.03 in0.8 mm
04:10 PM 66.7°F19.3°C 56.2°F13.4°C 69% 1.0 mph S1.6 kmh S 4.0 mph6.4 kmh 29.68 in1005.1 mb 0.00 in0.0 mm 0.00 in0.0 mm 0.03 in0.8 mm
04:15 PM 66.6°F19.2°C 56.1°F13.4°C 69% 1.0 mph S1.6 kmh S 6.0 mph9.7 kmh 29.68 in1005.1 mb 0.00 in0.0 mm 0.00 in0.0 mm 0.03 in0.8 mm
04:20 PM 66.6°F19.2°C 55.3°F12.9°C 67% 1.0 mph SW1.6 kmh SW 6.0 mph9.7 kmh 29.68 in1005.1 mb 0.00 in0.0 mm 0.00 in0.0 mm 0.03 in0.8 mm
04:25 PM 66.6°F19.2°C 56.1°F13.4°C 69% 2.0 mph WSW3.2 kmh WSW 6.0 mph9.7 kmh 29.68 in1005.1 mb 0.00 in0.0 mm 0.00 in0.0 mm 0.03 in0.8 mm
04:30 PM 66.5°F19.2°C 57.2°F14.0°C 72% 1.0 mph WSW1.6 kmh WSW 6.0 mph9.7 kmh 29.68 in1005.1 mb 0.00 in0.0 mm 0.00 in0.0 mm 0.03 in0.8 mm
04:35 PM 66.5°F19.2°C 55.6°F13.1°C 68% 1.0 mph WSW1.6 kmh WSW 5.0 mph8.0 kmh 29.68 in1005.1 mb 0.00 in0.0 mm 0.00 in0.0 mm 0.03 in0.8 mm
04:40 PM 66.4°F19.1°C 55.9°F13.3°C 69% 1.0 mph WSW1.6 kmh WSW 4.0 mph6.4 kmh 29.68 in1005.1 mb 0.00 in0.0 mm 0.00 in0.0 mm 0.03 in0.8 mm
04:45 PM 66.3°F19.1°C 55.8°F13.2°C 69% 1.0 mph W1.6 kmh W 4.0 mph6.4 kmh 29.68 in1005.1 mb 0.00 in0.0 mm 0.00 in0.0 mm 0.03 in0.8 mm
04:50 PM 66.2°F19.0°C 54.5°F12.5°C 66% Calm Calm 4.0 mph6.4 kmh 29.68 in1005.1 mb 0.00 in0.0 mm 0.00 in0.0 mm 0.03 in0.8 mm
04:55 PM 66.2°F19.0°C 56.9°F13.8°C 72% Calm Calm 3.0 mph4.8 kmh 29.68 in1005.1 mb 0.00 in0.0 mm 0.00 in0.0 mm 0.03 in0.8 mm
05:00 PM 66.2°F19.0°C 56.1°F13.4°C 70% 1.0 mph WNW1.6 kmh WNW 3.0 mph4.8 kmh 29.68 in1005.1 mb 0.00 in0.0 mm 0.00 in0.0 mm 0.03 in0.8 mm
05:05 PM 66.2°F19.0°C 56.1°F13.4°C 70% 1.0 mph NW1.6 kmh NW 5.0 mph8.0 kmh 29.68 in1005.1 mb 0.00 in0.0 mm 0.00 in0.0 mm 0.03 in0.8 mm
05:10 PM 66.3°F19.1°C 54.6°F12.6°C 66% 1.0 mph NE1.6 kmh NE 12.0 mph19.3 kmh 29.68 in1005.1 mb 0.00 in0.0 mm 0.00 in0.0 mm 0.03 in0.8 mm
05:15 PM 66.0°F18.9°C 55.1°F12.8°C 68% 4.0 mph NE6.4 kmh NE 15.0 mph24.1 kmh 29.68 in1005.1 mb 0.00 in0.0 mm 0.00 in0.0 mm 0.03 in0.8 mm
05:20 PM 65.3°F18.5°C 54.9°F12.7°C 69% 6.0 mph NNE9.7 kmh NNE 16.0 mph25.7 kmh 29.68 in1005.1 mb 0.00 in0.0 mm 0.00 in0.0 mm 0.03 in0.8 mm
05:25 PM 64.3°F17.9°C 54.3°F12.4°C 70% 6.0 mph NE9.7 kmh NE 16.0 mph25.7 kmh 29.68 in1005.1 mb 0.00 in0.0 mm 0.00 in0.0 mm 0.03 in0.8 mm
05:30 PM 63.5°F17.5°C 53.9°F12.2°C 71% 4.0 mph NE6.4 kmh NE 13.0 mph20.9 kmh 29.68 in1005.1 mb 0.00 in0.0 mm 0.00 in0.0 mm 0.03 in0.8 mm
05:35 PM 62.8°F17.1°C 54.0°F12.2°C 73% 4.0 mph NE6.4 kmh NE 13.0 mph20.9 kmh 29.69 in1005.4 mb 0.00 in0.0 mm 0.00 in0.0 mm 0.03 in0.8 mm
05:40 PM 62.3°F16.8°C 53.5°F11.9°C 73% 2.0 mph NE3.2 kmh NE 10.0 mph16.1 kmh 29.69 in1005.4 mb 0.00 in0.0 mm 0.00 in0.0 mm 0.03 in0.8 mm
05:45 PM 62.1°F16.7°C 54.1°F12.3°C 75% Calm Calm 3.0 mph4.8 kmh 29.69 in1005.4 mb 0.00 in0.0 mm 0.00 in0.0 mm 0.03 in0.8 mm
05:50 PM 62.0°F16.7°C 54.7°F12.6°C 77% Calm Calm 3.0 mph4.8 kmh 29.69 in1005.4 mb 0.00 in0.0 mm 0.00 in0.0 mm 0.03 in0.8 mm
05:55 PM 61.9°F16.6°C 55.3°F12.9°C 79% Calm Calm 2.0 mph3.2 kmh 29.69 in1005.4 mb 0.00 in0.0 mm 0.00 in0.0 mm 0.03 in0.8 mm
06:00 PM 61.6°F16.4°C 55.4°F13.0°C 80% Calm Calm 3.0 mph4.8 kmh 29.69 in1005.4 mb 0.00 in0.0 mm 0.00 in0.0 mm 0.03 in0.8 mm
06:05 PM 61.2°F16.2°C 55.7°F13.2°C 82% 1.0 mph E1.6 kmh E 3.0 mph4.8 kmh 29.70 in1005.8 mb 0.04 in1.0 mm 0.48 in12.2 mm 0.07 in1.8 mm
06:10 PM 60.6°F15.9°C 56.1°F13.4°C 85% 1.0 mph E1.6 kmh E 3.0 mph4.8 kmh 29.70 in1005.8 mb 0.07 in1.8 mm 0.36 in9.1 mm 0.10 in2.5 mm
06:15 PM 60.0°F15.6°C 55.8°F13.2°C 86% Calm Calm 2.0 mph3.2 kmh 29.70 in1005.8 mb 0.08 in2.0 mm 0.12 in3.0 mm 0.11 in2.8 mm
06:20 PM 59.1°F15.1°C 55.5°F13.1°C 88% 1.0 mph E1.6 kmh E 4.0 mph6.4 kmh 29.70 in1005.8 mb 0.08 in2.0 mm 0.00 in0.0 mm 0.11 in2.8 mm
06:25 PM 58.7°F14.8°C 55.5°F13.1°C 89% 1.0 mph E1.6 kmh E 4.0 mph6.4 kmh 29.70 in1005.8 mb 0.08 in2.0 mm 0.00 in0.0 mm 0.11 in2.8 mm
06:30 PM 58.3°F14.6°C 55.4°F13.0°C 90% 1.0 mph E1.6 kmh E 3.0 mph4.8 kmh 29.70 in1005.8 mb 0.08 in2.0 mm 0.00 in0.0 mm 0.11 in2.8 mm
06:35 PM 57.9°F14.4°C 55.3°F12.9°C 91% Calm Calm 2.0 mph3.2 kmh 29.70 in1005.8 mb 0.08 in2.0 mm 0.00 in0.0 mm 0.11 in2.8 mm
06:40 PM 57.7°F14.3°C 55.4°F13.0°C 92% 1.0 mph SE1.6 kmh SE 4.0 mph6.4 kmh 29.70 in1005.8 mb 0.08 in2.0 mm 0.00 in0.0 mm 0.11 in2.8 mm
06:45 PM 57.5°F14.2°C 55.5°F13.1°C 93% 1.0 mph SE1.6 kmh SE 5.0 mph8.0 kmh 29.70 in1005.8 mb 0.08 in2.0 mm 0.00 in0.0 mm 0.11 in2.8 mm
06:50 PM 57.3°F14.1°C 55.3°F12.9°C 93% 1.0 mph SE1.6 kmh SE 5.0 mph8.0 kmh 29.70 in1005.8 mb 0.09 in2.3 mm 0.12 in3.0 mm 0.12 in3.0 mm
06:55 PM 57.3°F14.1°C 55.6°F13.1°C 94% 1.0 mph SSE1.6 kmh SSE 4.0 mph6.4 kmh 29.70 in1005.8 mb 0.09 in2.3 mm 0.00 in0.0 mm 0.12 in3.0 mm
07:00 PM 57.2°F14.0°C 55.5°F13.1°C 94% 1.0 mph S1.6 kmh S 6.0 mph9.7 kmh 29.70 in1005.8 mb 0.09 in2.3 mm 0.00 in0.0 mm 0.12 in3.0 mm
07:05 PM 57.1°F13.9°C 55.4°F13.0°C 94% 1.0 mph S1.6 kmh S 6.0 mph9.7 kmh 29.70 in1005.8 mb 0.05 in1.3 mm 0.00 in0.0 mm 0.12 in3.0 mm
07:10 PM 57.0°F13.9°C 55.6°F13.1°C 95% 1.0 mph SSE1.6 kmh SSE 5.0 mph8.0 kmh 29.70 in1005.8 mb 0.02 in0.5 mm 0.00 in0.0 mm 0.12 in3.0 mm
07:15 PM 57.0°F13.9°C 55.6°F13.1°C 95% 1.0 mph SE1.6 kmh SE 5.0 mph8.0 kmh 29.70 in1005.8 mb 0.01 in0.3 mm 0.00 in0.0 mm 0.12 in3.0 mm
07:20 PM 57.0°F13.9°C 55.6°F13.1°C 95% Calm Calm 2.0 mph3.2 kmh 29.70 in1005.8 mb 0.01 in0.3 mm 0.00 in0.0 mm 0.12 in3.0 mm
07:25 PM 56.9°F13.8°C 55.5°F13.1°C 95% Calm Calm 2.0 mph3.2 kmh 29.71 in1006.1 mb 0.01 in0.3 mm 0.00 in0.0 mm 0.12 in3.0 mm
07:30 PM 56.9°F13.8°C 55.5°F13.1°C 95% Calm Calm 2.0 mph3.2 kmh 29.71 in1006.1 mb 0.01 in0.3 mm 0.00 in0.0 mm 0.12 in3.0 mm
07:35 PM 56.9°F13.8°C 55.8°F13.2°C 96% Calm Calm 2.0 mph3.2 kmh 29.71 in1006.1 mb 0.01 in0.3 mm 0.00 in0.0 mm 0.12 in3.0 mm
07:40 PM 56.9°F13.8°C 55.8°F13.2°C 96% Calm Calm 3.0 mph4.8 kmh 29.71 in1006.1 mb 0.01 in0.3 mm 0.00 in0.0 mm 0.12 in3.0 mm
07:45 PM 56.9°F13.8°C 55.8°F13.2°C 96% 1.0 mph SSW1.6 kmh SSW 3.0 mph4.8 kmh 29.71 in1006.1 mb 0.01 in0.3 mm 0.00 in0.0 mm 0.12 in3.0 mm
07:50 PM 56.9°F13.8°C 55.8°F13.2°C 96% 1.0 mph SW1.6 kmh SW 3.0 mph4.8 kmh 29.71 in1006.1 mb 0.00 in0.0 mm 0.00 in0.0 mm 0.12 in3.0 mm
07:55 PM 56.8°F13.8°C 55.7°F13.2°C 96% Calm Calm 3.0 mph4.8 kmh 29.71 in1006.1 mb 0.01 in0.3 mm 0.12 in3.0 mm 0.13 in3.3 mm
08:00 PM 56.7°F13.7°C 55.6°F13.1°C 96% Calm Calm 1.0 mph1.6 kmh 29.70 in1005.8 mb 0.01 in0.3 mm 0.00 in0.0 mm 0.13 in3.3 mm
08:05 PM 56.6°F13.7°C 55.5°F13.1°C 96% Calm Calm 1.0 mph1.6 kmh 29.70 in1005.8 mb 0.01 in0.3 mm 0.00 in0.0 mm 0.13 in3.3 mm
08:10 PM 56.5°F13.6°C 55.4°F13.0°C 96% Calm Calm 1.0 mph1.6 kmh 29.70 in1005.8 mb 0.02 in0.5 mm 0.12 in3.0 mm 0.14 in3.6 mm
08:15 PM 56.4°F13.6°C 55.3°F12.9°C 96% Calm Calm 1.0 mph1.6 kmh 29.71 in1006.1 mb 0.02 in0.5 mm 0.00 in0.0 mm 0.14 in3.6 mm
08:20 PM 56.4°F13.6°C 55.3°F12.9°C 96% 1.0 mph W1.6 kmh W 4.0 mph6.4 kmh 29.71 in1006.1 mb 0.02 in0.5 mm 0.00 in0.0 mm 0.14 in3.6 mm
08:25 PM 56.4°F13.6°C 55.3°F12.9°C 96% 1.0 mph NW1.6 kmh NW 5.0 mph8.0 kmh 29.71 in1006.1 mb 0.02 in0.5 mm 0.00 in0.0 mm 0.14 in3.6 mm
08:30 PM 56.5°F13.6°C 55.4°F13.0°C 96% 1.0 mph NNW1.6 kmh NNW 5.0 mph8.0 kmh 29.71 in1006.1 mb 0.03 in0.8 mm 0.12 in3.0 mm 0.15 in3.8 mm
08:35 PM 56.4°F13.6°C 55.3°F12.9°C 96% 1.0 mph NNW1.6 kmh NNW 4.0 mph6.4 kmh 29.71 in1006.1 mb 0.03 in0.8 mm 0.00 in0.0 mm 0.15 in3.8 mm
08:40 PM 56.4°F13.6°C 55.6°F13.1°C 97% 1.0 mph N1.6 kmh N 3.0 mph4.8 kmh 29.71 in1006.1 mb 0.03 in0.8 mm 0.00 in0.0 mm 0.15 in3.8 mm
08:45 PM 56.3°F13.5°C 55.5°F13.1°C 97% 1.0 mph NNE1.6 kmh NNE 3.0 mph4.8 kmh 29.71 in1006.1 mb 0.03 in0.8 mm 0.00 in0.0 mm 0.15 in3.8 mm
08:50 PM 56.3°F13.5°C 55.5°F13.1°C 97% Calm Calm 1.0 mph1.6 kmh 29.71 in1006.1 mb 0.03 in0.8 mm 0.00 in0.0 mm 0.15 in3.8 mm
08:55 PM 56.2°F13.4°C 55.4°F13.0°C 97% Calm Calm 1.0 mph1.6 kmh 29.71 in1006.1 mb 0.02 in0.5 mm 0.00 in0.0 mm 0.15 in3.8 mm
09:00 PM 56.2°F13.4°C 55.4°F13.0°C 97% Calm Calm -- 29.71 in1006.1 mb 0.02 in0.5 mm 0.00 in0.0 mm 0.15 in3.8 mm
09:05 PM 56.1°F13.4°C 55.3°F12.9°C 97% Calm Calm -- 29.71 in1006.1 mb 0.01 in0.3 mm 0.00 in0.0 mm 0.15 in3.8 mm
09:10 PM 56.0°F13.3°C 55.2°F12.9°C 97% Calm Calm -- 29.71 in1006.1 mb 0.01 in0.3 mm 0.00 in0.0 mm 0.15 in3.8 mm
09:15 PM 55.8°F13.2°C 55.0°F12.8°C 97% Calm Calm -- 29.71 in1006.1 mb 0.01 in0.3 mm 0.00 in0.0 mm 0.15 in3.8 mm
09:20 PM 55.7°F13.2°C 54.9°F12.7°C 97% Calm Calm -- 29.71 in1006.1 mb 0.01 in0.3 mm 0.00 in0.0 mm 0.15 in3.8 mm
09:25 PM 55.6°F13.1°C 54.8°F12.7°C 97% Calm Calm 2.0 mph3.2 kmh 29.71 in1006.1 mb 0.01 in0.3 mm 0.00 in0.0 mm 0.15 in3.8 mm
09:30 PM 55.3°F12.9°C 54.5°F12.5°C 97% 1.0 mph ENE1.6 kmh ENE 3.0 mph4.8 kmh 29.71 in1006.1 mb 0.00 in0.0 mm 0.00 in0.0 mm 0.15 in3.8 mm
09:35 PM 55.2°F12.9°C 54.4°F12.4°C 97% 1.0 mph ENE1.6 kmh ENE 3.0 mph4.8 kmh 29.71 in1006.1 mb 0.00 in0.0 mm 0.00 in0.0 mm 0.15 in3.8 mm
09:40 PM 55.0°F12.8°C 54.2°F12.3°C 97% Calm Calm -- 29.71 in1006.1 mb 0.00 in0.0 mm 0.00 in0.0 mm 0.15 in3.8 mm
09:45 PM 54.9°F12.7°C 54.1°F12.3°C 97% Calm Calm 2.0 mph3.2 kmh 29.72 in1006.4 mb 0.00 in0.0 mm 0.00 in0.0 mm 0.15 in3.8 mm
09:50 PM 54.8°F12.7°C 54.0°F12.2°C 97% Calm Calm 2.0 mph3.2 kmh 29.72 in1006.4 mb 0.00 in0.0 mm 0.00 in0.0 mm 0.15 in3.8 mm
09:55 PM 54.6°F12.6°C 53.8°F12.1°C 97% Calm Calm 2.0 mph3.2 kmh 29.72 in1006.4 mb 0.00 in0.0 mm 0.00 in0.0 mm 0.15 in3.8 mm
10:00 PM 54.5°F12.5°C 53.7°F12.1°C 97% Calm Calm -- 29.72 in1006.4 mb 0.00 in0.0 mm 0.00 in0.0 mm 0.15 in3.8 mm
10:05 PM 54.4°F12.4°C 53.6°F12.0°C 97% Calm Calm -- 29.72 in1006.4 mb 0.00 in0.0 mm 0.00 in0.0 mm 0.15 in3.8 mm
10:10 PM 54.1°F12.3°C 53.3°F11.8°C 97% Calm Calm -- 29.72 in1006.4 mb 0.00 in0.0 mm 0.00 in0.0 mm 0.15 in3.8 mm
10:15 PM 53.9°F12.2°C 53.1°F11.7°C 97% Calm Calm -- 29.72 in1006.4 mb 0.00 in0.0 mm 0.00 in0.0 mm 0.15 in3.8 mm
10:20 PM 53.6°F12.0°C 52.8°F11.6°C 97% Calm Calm -- 29.72 in1006.4 mb 0.00 in0.0 mm 0.00 in0.0 mm 0.15 in3.8 mm
10:25 PM 53.2°F11.8°C 52.4°F11.3°C 97% Calm Calm -- 29.72 in1006.4 mb 0.00 in0.0 mm 0.00 in0.0 mm 0.15 in3.8 mm
10:30 PM 53.0°F11.7°C 52.2°F11.2°C 97% Calm Calm -- 29.72 in1006.4 mb 0.00 in0.0 mm 0.00 in0.0 mm 0.15 in3.8 mm
10:35 PM 52.8°F11.6°C 51.7°F10.9°C 96% Calm Calm 2.0 mph3.2 kmh 29.72 in1006.4 mb 0.00 in0.0 mm 0.00 in0.0 mm 0.15 in3.8 mm
10:40 PM 52.5°F11.4°C 51.7°F10.9°C 97% Calm Calm 2.0 mph3.2 kmh 29.73 in1006.8 mb 0.00 in0.0 mm 0.00 in0.0 mm 0.15 in3.8 mm
10:45 PM 52.3°F11.3°C 51.2°F10.7°C 96% Calm Calm 1.0 mph1.6 kmh 29.72 in1006.4 mb 0.00 in0.0 mm 0.00 in0.0 mm 0.15 in3.8 mm
10:50 PM 52.1°F11.2°C 51.0°F10.6°C 96% Calm Calm -- 29.73 in1006.8 mb 0.00 in0.0 mm 0.00 in0.0 mm 0.15 in3.8 mm
10:55 PM 51.9°F11.1°C 51.1°F10.6°C 97% Calm Calm -- 29.72 in1006.4 mb 0.00 in0.0 mm 0.00 in0.0 mm 0.15 in3.8 mm
11:00 PM 51.6°F10.9°C 50.5°F10.3°C 96% Calm Calm 2.0 mph3.2 kmh 29.73 in1006.8 mb 0.00 in0.0 mm 0.00 in0.0 mm 0.15 in3.8 mm
11:05 PM 51.4°F10.8°C 50.3°F10.2°C 96% 1.0 mph ENE1.6 kmh ENE 3.0 mph4.8 kmh 29.73 in1006.8 mb 0.00 in0.0 mm 0.00 in0.0 mm 0.15 in3.8 mm
11:10 PM 51.2°F10.7°C 50.4°F10.2°C 97% 1.0 mph ENE1.6 kmh ENE 3.0 mph4.8 kmh 29.73 in1006.8 mb 0.00 in0.0 mm 0.00 in0.0 mm 0.15 in3.8 mm
11:15 PM 51.0°F10.6°C 49.9°F9.9°C 96% Calm Calm 2.0 mph3.2 kmh 29.73 in1006.8 mb 0.00 in0.0 mm 0.00 in0.0 mm 0.15 in3.8 mm
11:20 PM 50.9°F10.5°C 49.8°F9.9°C 96% Calm Calm 1.0 mph1.6 kmh 29.73 in1006.8 mb 0.00 in0.0 mm 0.00 in0.0 mm 0.15 in3.8 mm
11:25 PM 50.7°F10.4°C 49.9°F9.9°C 97% Calm Calm 2.0 mph3.2 kmh 29.73 in1006.8 mb 0.00 in0.0 mm 0.00 in0.0 mm 0.15 in3.8 mm
11:30 PM 50.5°F10.3°C 49.4°F9.7°C 96% Calm Calm 2.0 mph3.2 kmh 29.73 in1006.8 mb 0.00 in0.0 mm 0.00 in0.0 mm 0.15 in3.8 mm
11:35 PM 50.2°F10.1°C 49.1°F9.5°C 96% 1.0 mph ENE1.6 kmh ENE 3.0 mph4.8 kmh 29.73 in1006.8 mb 0.00 in0.0 mm 0.00 in0.0 mm 0.15 in3.8 mm
11:40 PM 50.0°F10.0°C 49.2°F9.6°C 97% 1.0 mph E1.6 kmh E 3.0 mph4.8 kmh 29.73 in1006.8 mb 0.00 in0.0 mm 0.00 in0.0 mm 0.15 in3.8 mm
11:45 PM 49.9°F9.9°C 48.8°F9.3°C 96% Calm Calm 3.0 mph4.8 kmh 29.73 in1006.8 mb 0.00 in0.0 mm 0.00 in0.0 mm 0.15 in3.8 mm
11:50 PM 49.9°F9.9°C 48.8°F9.3°C 96% Calm Calm 1.0 mph1.6 kmh 29.74 in1007.1 mb 0.00 in0.0 mm 0.00 in0.0 mm 0.15 in3.8 mm
11:55 PM 49.8°F9.9°C 49.0°F9.4°C 97% Calm Calm 1.0 mph1.6 kmh 29.74 in1007.1 mb 0.00 in0.0 mm 0.00 in0.0 mm 0.15 in3.8 mm